createdAt,value
2023-01-17T09:49:49.770Z,3.60
2023-01-17T09:52:20.333Z,3.80
2023-01-17T09:54:49.674Z,3.80
2023-01-17T09:57:32.040Z,3.90
2023-01-17T10:00:08.728Z,3.60
2023-01-17T10:02:48.246Z,3.40
2023-01-17T10:05:44.271Z,3.70
2023-01-17T10:08:25.538Z,3.70
2023-01-17T10:11:05.048Z,3.60
2023-01-17T10:13:40.930Z,3.80
2023-01-17T10:16:20.336Z,4.10
2023-01-17T10:19:08.014Z,3.80
2023-01-17T10:21:54.511Z,3.80
2023-01-17T10:24:54.857Z,3.60
2023-01-17T10:27:25.986Z,4.00
2023-01-17T10:29:54.217Z,3.90
2023-01-17T10:32:24.369Z,3.60
2023-01-17T10:34:53.308Z,3.90
2023-01-17T10:37:26.343Z,3.90
2023-01-17T10:39:56.862Z,3.60
2023-01-17T10:42:29.227Z,4.00
2023-01-17T10:45:03.450Z,3.60
2023-01-17T10:50:04.576Z,3.70
2023-01-17T10:52:42.695Z,3.80
2023-01-17T10:55:23.401Z,4.20
2023-01-17T10:57:52.093Z,3.60
2023-01-17T11:00:33.807Z,3.70
2023-01-17T11:03:02.970Z,3.30
2023-01-17T11:05:32.577Z,4.20
2023-01-17T11:08:02.895Z,4.00
2023-01-17T11:10:39.140Z,3.60
2023-01-17T11:13:19.147Z,3.70
2023-01-17T11:15:50.874Z,4.00
2023-01-17T11:18:20.841Z,3.60
2023-01-17T11:20:49.536Z,3.40
2023-01-17T11:23:20.387Z,3.60
2023-01-17T11:25:54.793Z,3.70
2023-01-17T11:28:25.650Z,4.00
2023-01-17T11:30:56.556Z,3.80
2023-01-17T11:33:44.596Z,3.80
2023-01-17T11:36:18.370Z,3.70
2023-01-17T11:38:57.800Z,3.70
2023-01-17T11:41:27.549Z,3.60
2023-01-17T11:43:57.312Z,3.70
2023-01-17T11:46:27.592Z,3.80
2023-01-17T11:48:57.439Z,3.90
2023-01-17T11:51:28.598Z,3.60
2023-01-17T11:54:18.448Z,4.20
2023-01-17T11:56:46.714Z,4.20
2023-01-17T11:59:24.761Z,3.70
2023-01-17T12:02:12.439Z,3.80
2023-01-17T12:04:41.846Z,3.80
2023-01-17T12:07:22.983Z,3.70
2023-01-17T12:09:59.928Z,3.50
2023-01-17T12:13:01.177Z,4.00
2023-01-17T12:15:39.345Z,3.60
2023-01-17T12:18:21.341Z,4.00
2023-01-17T12:20:55.150Z,3.60
2023-01-17T12:23:36.048Z,4.10
2023-01-17T12:26:12.412Z,3.60
2023-01-17T12:28:58.862Z,3.80
2023-01-17T12:33:58.231Z,3.70
2023-01-17T12:36:35.728Z,3.80
2023-01-17T12:39:09.544Z,3.80
2023-01-17T12:41:48.049Z,3.60
2023-01-17T12:44:18.055Z,4.00
2023-01-17T12:46:50.688Z,3.90
2023-01-17T12:49:23.985Z,3.40
2023-01-17T12:51:55.554Z,3.90
2023-01-17T12:54:29.183Z,3.50
2023-01-17T12:57:02.100Z,3.90
2023-01-17T12:59:35.005Z,4.20
2023-01-17T13:02:13.636Z,4.30
2023-01-17T13:04:58.042Z,3.70
2023-01-17T13:07:35.338Z,3.90
2023-01-17T13:10:11.495Z,4.10
2023-01-17T13:12:39.980Z,3.30
2023-01-17T13:15:15.392Z,3.70
2023-01-17T13:17:46.459Z,3.90
2023-01-17T13:20:22.020Z,3.70
2023-01-17T13:22:51.316Z,4.40
2023-01-17T13:25:32.411Z,3.50
2023-01-17T13:28:10.466Z,3.90
2023-01-17T13:31:18.902Z,3.60
2023-01-17T13:33:59.286Z,3.90
2023-01-17T13:39:22.056Z,3.80
2023-01-17T13:41:54.135Z,3.80
2023-01-17T13:44:25.848Z,3.90
2023-01-17T13:47:00.169Z,3.60
2023-01-17T13:49:43.393Z,4.00
2023-01-17T13:52:33.090Z,3.70
2023-01-17T13:55:03.422Z,4.20
2023-01-17T13:57:42.891Z,4.20
2023-01-17T14:00:50.101Z,4.00
2023-01-17T14:03:50.482Z,4.00
2023-01-17T14:06:43.666Z,3.70
2023-01-17T14:09:20.692Z,3.50
2023-01-17T14:12:00.690Z,3.90
2023-01-17T14:14:51.391Z,4.00
2023-01-17T14:17:51.088Z,3.60
2023-01-17T14:20:44.963Z,3.40
2023-01-17T14:23:26.057Z,3.70
2023-01-17T14:25:54.275Z,3.40
2023-01-17T14:28:29.072Z,3.70
2023-01-17T14:30:59.512Z,4.30
2023-01-17T14:33:29.832Z,3.60
2023-01-17T14:35:58.930Z,4.30
2023-01-17T14:38:29.272Z,3.60
2023-01-17T14:40:59.089Z,4.00
2023-01-17T14:43:28.784Z,4.70
2023-01-17T14:45:58.647Z,4.20
2023-01-17T14:48:27.159Z,4.10
2023-01-17T14:50:59.326Z,4.60
2023-01-17T14:53:28.748Z,4.50
2023-01-17T14:55:59.741Z,4.20
2023-01-17T14:58:29.721Z,4.10
2023-01-17T15:01:00.361Z,4.30
2023-01-17T15:03:30.259Z,4.00
2023-01-17T15:06:11.247Z,4.30
2023-01-17T15:08:39.724Z,4.20
2023-01-17T15:11:10.635Z,4.60
2023-01-17T15:13:44.573Z,3.80
2023-01-17T15:16:22.116Z,3.90
2023-01-17T15:18:51.260Z,4.10
2023-01-17T15:21:20.819Z,4.40
2023-01-17T15:23:51.710Z,4.20
2023-01-17T15:26:21.105Z,4.80
2023-01-17T15:28:49.386Z,4.50
2023-01-17T15:31:21.553Z,4.60
2023-01-17T15:33:53.940Z,4.30
2023-01-17T15:36:29.403Z,4.50
2023-01-17T15:38:59.773Z,4.20
2023-01-17T15:41:30.911Z,4.20
2023-01-17T15:43:59.604Z,4.80
2023-01-17T15:46:38.218Z,4.40
2023-01-17T15:49:13.235Z,4.80
2023-01-17T15:51:47.568Z,4.40
2023-01-17T15:57:03.875Z,4.20
2023-01-17T15:59:44.812Z,5.10
2023-01-17T16:02:43.491Z,4.90
2023-01-17T16:05:45.313Z,4.70
2023-01-17T16:08:31.574Z,5.50
2023-01-17T16:11:01.744Z,5.30
2023-01-17T16:13:31.593Z,5.40
2023-01-17T16:16:21.456Z,5.60
2023-01-17T16:18:52.233Z,5.40
2023-01-17T16:21:24.045Z,5.50
2023-01-17T16:23:52.547Z,5.70
2023-01-17T16:26:21.159Z,5.60
2023-01-17T16:28:49.443Z,5.60
2023-01-17T16:31:18.193Z,6.10
2023-01-17T16:33:49.970Z,6.10
2023-01-17T16:36:20.179Z,6.50
2023-01-17T16:38:50.272Z,5.60
2023-01-17T16:41:19.287Z,6.00
2023-01-17T16:43:57.436Z,6.20
2023-01-17T16:46:25.839Z,6.50
2023-01-17T16:48:54.079Z,6.50
2023-01-17T16:51:22.410Z,6.60
2023-01-17T16:53:50.618Z,7.00
2023-01-17T16:56:19.632Z,6.80
2023-01-17T16:58:47.859Z,7.20
2023-01-17T17:01:20.256Z,7.80
2023-01-17T17:03:48.896Z,7.00
2023-01-17T17:06:17.108Z,7.20
2023-01-17T17:08:45.363Z,7.50
2023-01-17T17:11:15.812Z,8.30
2023-01-17T17:13:45.626Z,7.60
2023-01-17T17:16:16.848Z,8.20
2023-01-17T17:18:46.445Z,8.50
2023-01-17T17:21:14.757Z,8.40
2023-01-17T17:23:42.976Z,8.80
2023-01-17T17:28:38.496Z,9.30
2023-01-17T17:33:36.223Z,10.40
2023-01-17T17:36:06.845Z,10.10
2023-01-17T17:38:35.087Z,10.90
2023-01-17T17:41:09.054Z,10.80
2023-01-17T17:43:39.856Z,10.90
2023-01-17T17:46:08.657Z,10.00
2023-01-17T17:48:37.287Z,11.20
2023-01-17T17:51:06.316Z,12.30
2023-01-17T17:53:34.557Z,11.20
2023-01-17T17:56:07.053Z,12.00
2023-01-17T17:58:35.747Z,12.50
2023-01-17T18:01:05.842Z,12.60
2023-01-17T18:03:34.034Z,13.20
2023-01-17T18:06:04.001Z,12.50
2023-01-17T18:08:33.553Z,12.30
2023-01-17T18:11:03.225Z,12.00
2023-01-17T18:13:32.856Z,12.70
2023-01-17T18:16:04.777Z,13.60
2023-01-17T18:18:33.110Z,13.20
2023-01-17T18:21:09.427Z,13.90
2023-01-17T18:23:39.368Z,13.50
2023-01-17T18:26:15.605Z,13.30
2023-01-17T18:28:44.027Z,13.30
2023-01-17T18:31:12.550Z,14.90
2023-01-17T18:33:41.140Z,14.00
2023-01-17T18:36:10.948Z,14.40
2023-01-17T18:38:40.348Z,14.50
2023-01-17T18:41:10.859Z,13.30
2023-01-17T18:43:39.479Z,14.70
2023-01-17T18:46:08.857Z,14.20
2023-01-17T18:48:37.916Z,14.60
2023-01-17T18:51:08.248Z,14.10
2023-01-17T18:53:37.743Z,15.00
2023-01-17T18:56:08.938Z,14.80
2023-01-17T18:58:38.727Z,14.70
2023-01-17T19:01:09.454Z,15.00
2023-01-17T19:03:39.066Z,15.30
2023-01-17T19:06:10.102Z,14.60
2023-01-17T19:08:38.995Z,14.40
2023-01-17T19:11:07.756Z,14.90
2023-01-17T19:13:37.259Z,14.00
2023-01-17T19:16:08.911Z,14.30
2023-01-17T19:18:37.208Z,14.50
2023-01-17T19:21:06.878Z,14.40
2023-01-17T19:23:36.474Z,14.40
2023-01-17T19:26:07.565Z,13.50
2023-01-17T19:28:37.888Z,14.00
2023-01-17T19:31:07.725Z,13.50
2023-01-17T19:33:37.529Z,15.20
2023-01-17T19:36:08.558Z,14.70
2023-01-17T19:38:37.620Z,14.40
2023-01-17T19:41:10.611Z,13.10
2023-01-17T19:43:40.275Z,12.10
2023-01-17T19:46:09.086Z,13.50
2023-01-17T19:48:38.456Z,12.90
2023-01-17T19:51:09.224Z,12.90
2023-01-17T19:53:38.139Z,13.60
2023-01-17T19:56:08.921Z,13.30
2023-01-17T19:58:37.579Z,11.90
2023-01-17T20:01:07.774Z,12.50
2023-01-17T20:03:36.609Z,12.20
2023-01-17T20:06:05.842Z,11.50
2023-01-17T20:08:34.185Z,12.80
2023-01-17T20:22:30.584Z,20.20
2023-01-17T20:25:02.698Z,20.00
2023-01-17T20:27:35.380Z,21.50
2023-01-17T20:30:19.837Z,20.40
2023-01-17T20:32:53.108Z,20.80
2023-01-17T20:35:25.907Z,20.90
2023-01-17T20:37:58.760Z,21.50
2023-01-17T20:40:31.819Z,22.20
2023-01-17T20:43:04.086Z,21.30
2023-01-17T20:45:36.434Z,20.10
2023-01-17T20:48:09.050Z,20.30
2023-01-17T20:50:41.416Z,20.40
2023-01-17T20:53:14.083Z,19.40
2023-01-17T20:55:46.579Z,19.50
2023-01-17T20:58:18.966Z,22.70
2023-01-17T21:00:52.551Z,19.90
2023-01-17T21:03:29.117Z,22.30
2023-01-17T21:06:05.603Z,20.60
2023-01-17T21:08:39.491Z,18.70
2023-01-17T21:11:13.781Z,19.40
2023-01-17T21:13:48.914Z,20.30
2023-01-17T21:16:23.045Z,21.50
2023-01-17T21:18:55.512Z,22.40
2023-01-17T21:21:29.234Z,21.10
2023-01-17T21:24:02.135Z,21.80
2023-01-17T21:26:35.092Z,23.50
2023-01-17T21:29:07.460Z,21.40
2023-01-17T21:31:42.792Z,21.40
2023-01-17T21:34:15.541Z,24.10
2023-01-17T21:36:47.795Z,23.30
2023-01-17T21:39:20.716Z,23.70
2023-01-17T21:41:53.670Z,26.40
2023-01-17T21:44:26.898Z,24.80
2023-01-17T21:47:00.022Z,24.00
2023-01-17T21:49:32.667Z,22.30
2023-01-17T21:52:20.467Z,23.90
2023-01-17T21:55:10.540Z,20.90
2023-01-17T21:58:00.654Z,23.90
2023-01-17T22:00:32.907Z,23.40
2023-01-17T22:03:05.331Z,24.10
2023-01-17T22:05:37.804Z,23.00
2023-01-17T22:08:12.972Z,22.30
2023-01-17T22:10:48.218Z,23.20
2023-01-17T22:13:21.077Z,23.40
2023-01-17T22:16:02.659Z,27.40
2023-01-17T22:18:37.332Z,22.70
2023-01-17T22:21:12.056Z,21.90
2023-01-17T22:23:49.178Z,24.00
2023-01-17T22:26:22.239Z,23.80
2023-01-17T22:28:56.087Z,24.40
2023-01-17T22:31:29.784Z,23.30
2023-01-17T22:34:03.655Z,22.90
2023-01-17T22:36:37.619Z,23.80
2023-01-17T22:39:10.632Z,23.70
2023-01-17T22:41:42.860Z,25.10
2023-01-17T22:44:15.214Z,26.20
2023-01-17T22:46:48.277Z,26.00
2023-01-17T22:49:23.515Z,25.10
2023-01-17T22:51:55.730Z,23.50
2023-01-17T22:54:28.166Z,23.80
2023-01-17T22:57:00.401Z,24.00
2023-01-17T22:59:34.055Z,23.10
2023-01-17T23:02:06.532Z,24.00
2023-01-17T23:04:38.763Z,24.70
2023-01-17T23:07:10.957Z,25.10
2023-01-17T23:09:43.133Z,25.20
2023-01-17T23:12:15.285Z,22.50
2023-01-17T23:15:05.501Z,22.90
2023-01-17T23:17:55.720Z,24.30
2023-01-17T23:20:27.958Z,23.70
2023-01-17T23:23:00.559Z,25.50
2023-01-17T23:25:32.917Z,24.80
2023-01-17T23:28:20.888Z,25.10
2023-01-17T23:30:53.375Z,23.90
2023-01-17T23:33:25.848Z,21.80
2023-01-17T23:35:58.206Z,22.10
2023-01-17T23:38:30.633Z,22.10
2023-01-17T23:41:25.311Z,21.10
2023-01-17T23:43:59.141Z,22.70
2023-01-17T23:46:31.443Z,23.00
2023-01-17T23:49:03.859Z,21.10
2023-01-17T23:51:36.153Z,23.90
2023-01-17T23:54:08.441Z,24.00
2023-01-17T23:56:40.611Z,24.20
2023-01-17T23:59:12.949Z,21.10
